Time;durP1;ratioP1;P1;durP2;ratioP2;P2;SDS_P1;SDS_P2;PMS_P1;PMS_P2;Temp;Humidity;BMP_temperature;BMP_pressure;BME280_temperature;BME280_humidity;BME280_pressure;Samples;Min_cycle;Max_cycle;Signal;HPM_P1;HPM_P2
2023/01/22 00:00:19;;;;;;;17.40;9.82;;;;;;;-146.25;91.97;52508.09;2062394;28;39900;-78
2023/01/22 00:01:21;;;;;;;17.23;10.55;;;;;;;-146.25;91.72;52510.13;2062922;28;20035;-78
2023/01/22 00:02:28;;;;;;;15.13;10.25;;;;;;;-146.25;91.76;52504.03;2062543;28;20035;-78
2023/01/22 00:03:30;;;;;;;15.30;9.98;;;;;;;-146.25;91.73;52508.09;2054906;28;36486;-78
2023/01/22 00:04:32;;;;;;;13.93;8.73;;;;;;;-146.25;91.85;52516.22;2055336;28;35935;-78
2023/01/22 00:05:33;;;;;;;14.73;8.55;;;;;;;-146.25;91.49;52532.44;2053758;28;40602;-75
2023/01/22 00:06:35;;;;;;;16.83;9.63;;;;;;;-146.25;91.44;52522.28;2054690;28;34665;-75
2023/01/22 00:07:37;;;;;;;13.02;9.25;;;;;;;-146.25;91.36;52516.22;2055423;28;37284;-78
2023/01/22 00:08:42;;;;;;;12.38;8.90;;;;;;;-146.25;91.41;52502.03;2055692;28;20162;-78
2023/01/22 00:09:44;;;;;;;16.13;9.50;;;;;;;-146.25;91.03;52522.28;2055557;28;40106;-78
2023/01/22 00:10:54;;;;;;;13.02;8.93;;;;;;;-146.25;91.02;52445.25;2055278;28;41325;-76
2023/01/22 00:11:56;;;;;;;10.52;7.63;;;;;;;-146.25;90.75;52502.03;2055053;28;38735;-75
2023/01/22 00:12:58;;;;;;;12.98;8.65;;;;;;;-146.25;90.17;52489.84;2055118;28;37838;-75
2023/01/22 00:14:02;;;;;;;12.50;7.88;;;;;;;-146.25;89.82;52479.72;2055868;28;20055;-76
2023/01/22 00:15:05;;;;;;;15.05;9.20;;;;;;;-146.25;89.92;52487.81;2055854;28;20040;-76
2023/01/22 00:16:08;;;;;;;11.68;8.23;;;;;;;-146.25;89.96;52483.78;2055326;28;34838;-76
2023/01/22 00:17:13;;;;;;;11.88;8.00;;;;;;;-146.25;90.04;52483.78;2054886;28;36545;-75
2023/01/22 00:18:17;;;;;;;16.58;8.13;;;;;;;-146.25;89.90;52489.84;2062690;28;38075;-77
2023/01/22 00:19:19;;;;;;;12.68;7.93;;;;;;;-146.25;89.97;52504.03;2061439;28;42600;-74
2023/01/22 00:20:21;;;;;;;12.23;8.60;;;;;;;-146.25;89.89;52526.34;2054144;28;39558;-77
2023/01/22 00:21:23;;;;;;;11.52;8.48;;;;;;;-146.25;89.96;52497.97;2054246;28;40573;-75
2023/01/22 00:22:24;;;;;;;11.68;7.15;;;;;;;-146.25;90.29;52493.91;2054623;28;38906;-75
2023/01/22 00:23:26;;;;;;;12.07;7.45;;;;;;;-146.25;90.05;52510.13;2055771;28;20977;-75
2023/01/22 00:24:28;;;;;;;11.60;8.15;;;;;;;-146.25;89.73;52552.72;2054307;28;38434;-76
2023/01/22 00:25:30;;;;;;;13.73;7.53;;;;;;;-146.25;89.89;52512.16;2055266;28;34357;-75
2023/01/22 00:26:35;;;;;;;10.68;7.22;;;;;;;-146.25;89.46;52487.81;2055049;28;28692;-76
2023/01/22 00:27:37;;;;;;;9.85;6.95;;;;;;;-146.25;89.53;52506.06;2054568;28;38562;-75
2023/01/22 00:28:44;;;;;;;12.30;7.00;;;;;;;-146.25;89.51;52542.56;2055479;28;36984;-75
2023/01/22 00:29:45;;;;;;;9.93;6.70;;;;;;;-146.25;89.61;52536.50;2054866;28;33248;-75
2023/01/22 00:30:56;;;;;;;10.98;6.95;;;;;;;-146.25;89.50;52493.91;2062584;28;37754;-76
2023/01/22 00:31:58;;;;;;;11.48;6.82;;;;;;;-146.25;89.51;52518.25;2053554;28;20043;-75
2023/01/22 00:32:59;;;;;;;11.02;6.15;;;;;;;-146.25;89.28;52518.25;2046877;28;27316;-75
2023/01/22 00:34:03;;;;;;;9.55;7.05;;;;;;;-146.25;88.57;52512.16;2054827;28;20039;-75
2023/01/22 00:35:05;;;;;;;9.90;6.80;;;;;;;-146.25;88.70;52542.56;2055058;28;20046;-75
2023/01/22 00:36:14;;;;;;;10.68;6.97;;;;;;;-146.25;88.58;52518.25;2054398;28;32370;-75
2023/01/22 00:37:16;;;;;;;10.95;6.65;;;;;;;-146.25;88.27;52481.75;2054321;28;34119;-76
2023/01/22 00:38:18;;;;;;;10.00;5.78;;;;;;;-146.25;88.01;52487.81;2046894;28;20032;-75
2023/01/22 00:39:20;;;;;;;11.57;6.85;;;;;;;-146.25;88.09;52546.63;2054398;28;20063;-75
2023/01/22 00:40:21;;;;;;;9.65;5.63;;;;;;;-146.25;87.92;52504.03;2062173;28;22724;-76
2023/01/22 00:41:24;;;;;;;8.50;5.82;;;;;;;-146.25;87.63;52469.56;2062681;28;20039;-75
2023/01/22 00:42:26;;;;;;;8.73;5.57;;;;;;;-146.25;87.27;52483.78;2062440;28;20122;-75
2023/01/22 00:43:30;;;;;;;9.15;5.68;;;;;;;-146.25;86.91;52510.13;2054979;28;28811;-75
2023/01/22 00:44:31;;;;;;;8.05;5.47;;;;;;;-146.25;86.70;52554.75;2053789;28;32132;-75
2023/01/22 00:45:36;;;;;;;8.00;5.30;;;;;;;-146.25;87.00;52514.19;2054010;28;31434;-75
2023/01/22 00:46:38;;;;;;;8.63;5.20;;;;;;;-146.25;86.66;52497.97;2062141;28;31984;-75
2023/01/22 00:47:41;;;;;;;6.78;5.10;;;;;;;-146.25;86.85;52540.53;2062570;28;20045;-74
2023/01/22 00:48:48;;;;;;;8.70;5.35;;;;;;;-146.25;87.34;52485.81;2054209;28;40232;-77
2023/01/22 00:49:50;;;;;;;9.32;5.70;;;;;;;-146.25;87.08;52481.75;2054593;28;20172;-75
2023/01/22 00:50:51;;;;;;;7.65;5.28;;;;;;;-146.25;86.70;52502.03;2053853;28;34096;-74
2023/01/22 00:51:53;;;;;;;7.60;4.55;;;;;;;-146.25;86.33;52522.28;2062295;28;38397;-75
2023/01/22 00:52:56;;;;;;;7.90;5.45;;;;;;;-146.25;86.66;52487.81;2063820;28;20161;-75
2023/01/22 00:53:57;;;;;;;8.43;4.75;;;;;;;-146.25;86.52;52491.88;2055288;28;35792;-74
2023/01/22 00:54:59;;;;;;;7.43;5.07;;;;;;;-146.25;86.63;52489.84;2056804;28;20047;-74
2023/01/22 00:56:01;;;;;;;6.85;5.00;;;;;;;-146.25;87.02;52518.25;2055470;28;31823;-75
2023/01/22 00:57:03;;;;;;;8.90;5.00;;;;;;;-146.25;86.98;52510.13;2063852;28;20031;-75
2023/01/22 00:58:05;;;;;;;6.07;4.53;;;;;;;-146.25;86.73;52477.69;2063686;28;28941;-75
2023/01/22 00:59:09;;;;;;;7.00;4.50;;;;;;;-146.25;86.85;52502.03;2055919;28;20195;-75
2023/01/22 01:00:16;;;;;;;8.70;4.45;;;;;;;-146.25;86.95;52552.72;2064156;28;20928;-75
2023/01/22 01:01:21;;;;;;;6.80;4.70;;;;;;;-146.25;87.01;52497.97;2062629;28;21086;-75
2023/01/22 01:02:23;;;;;;;6.63;4.45;;;;;;;-146.25;86.77;52506.06;2055519;28;32750;-74
2023/01/22 01:03:27;;;;;;;9.32;5.00;;;;;;;-146.25;87.13;52538.53;2055426;28;20051;-73
2023/01/22 01:04:31;;;;;;;7.32;4.68;;;;;;;-146.25;87.32;52530.41;2056174;28;20043;-74
2023/01/22 01:05:33;;;;;;;7.95;4.80;;;;;;;-146.25;87.09;52520.28;2063445;28;23378;-74
2023/01/22 01:06:35;;;;;;;5.18;4.18;;;;;;;-146.25;87.18;52481.75;2063281;28;37512;-75
2023/01/22 01:07:36;;;;;;;8.38;4.85;;;;;;;-146.25;86.85;52497.97;2056294;28;20793;-74
2023/01/22 01:08:42;;;;;;;8.65;5.07;;;;;;;-146.25;86.83;52524.31;2055900;28;20047;-74
2023/01/22 01:09:43;;;;;;;6.43;4.43;;;;;;;-146.25;86.88;52461.47;2055185;28;27637;-74
2023/01/22 01:10:45;;;;;;;7.70;4.80;;;;;;;-146.25;86.97;52497.97;2056119;28;34032;-74
2023/01/22 01:11:47;;;;;;;6.18;3.92;;;;;;;-146.25;86.99;52518.25;2055751;28;35934;-74
2023/01/22 01:12:51;;;;;;;6.72;4.07;;;;;;;-146.25;87.21;52506.06;2055735;28;20035;-75
2023/01/22 01:13:53;;;;;;;5.53;4.57;;;;;;;-146.25;87.09;52506.06;2063841;28;20792;-74
2023/01/22 01:14:55;;;;;;;6.22;4.13;;;;;;;-146.25;86.93;52514.19;2063764;28;31749;-75
2023/01/22 01:16:08;;;;;;;7.32;4.45;;;;;;;-146.25;86.87;52493.91;2056372;28;20045;-74
2023/01/22 01:17:10;;;;;;;7.38;4.68;;;;;;;-146.25;86.91;52508.09;2055374;28;30700;-74
2023/01/22 01:18:13;;;;;;;5.25;4.10;;;;;;;-146.25;86.80;52552.72;2054820;28;31185;-74
2023/01/22 01:19:21;;;;;;;10.55;4.82;;;;;;;-146.25;86.79;52518.25;2056058;28;24497;-74
2023/01/22 01:20:24;;;;;;;5.80;4.43;;;;;;;-146.25;86.57;52487.81;2056468;28;20051;-75
2023/01/22 01:21:27;;;;;;;8.00;3.97;;;;;;;-146.25;86.63;52479.72;2056216;28;25452;-74
2023/01/22 01:22:29;;;;;;;6.80;4.35;;;;;;;-146.25;86.62;52495.94;2055833;28;33627;-74
2023/01/22 01:23:31;;;;;;;9.55;4.60;;;;;;;-146.25;86.57;52506.06;2056058;28;27401;-76
2023/01/22 01:24:35;;;;;;;9.30;4.97;;;;;;;-146.25;86.59;52483.78;2055332;28;20054;-76
2023/01/22 01:25:40;;;;;;;4.82;4.28;;;;;;;-146.25;86.79;52506.06;2056006;28;20039;-73
2023/01/22 01:26:43;;;;;;;6.60;4.07;;;;;;;-146.25;86.62;52453.34;2055565;28;20039;-76
2023/01/22 01:27:45;;;;;;;7.50;4.70;;;;;;;-146.25;86.41;52504.03;2047739;28;20774;-76
2023/01/22 01:28:47;;;;;;;7.15;4.00;;;;;;;-146.25;86.50;52489.84;2047648;28;30234;-76
2023/01/22 01:29:48;;;;;;;7.47;4.43;;;;;;;-146.25;86.50;52518.25;2055636;28;20058;-76
2023/01/22 01:30:50;;;;;;;6.97;4.28;;;;;;;-146.25;86.62;52491.88;2055603;28;24438;-75
2023/01/22 01:31:53;;;;;;;7.13;4.43;;;;;;;-146.25;86.34;52506.06;2055157;28;32659;-76
2023/01/22 01:32:55;;;;;;;7.32;4.05;;;;;;;-146.25;86.11;52512.16;2054971;28;40008;-74
2023/01/22 01:34:00;;;;;;;7.75;5.10;;;;;;;-146.25;86.46;52483.78;2055399;28;30188;-74
2023/01/22 01:35:06;;;;;;;4.95;3.92;;;;;;;-146.25;86.63;52491.88;2054454;28;36816;-74
2023/01/22 01:36:19;;;;;;;5.63;3.55;;;;;;;-146.25;86.70;52485.81;2056068;28;20043;-74
2023/01/22 01:37:43;;;;;;;5.63;3.92;;;;;;;-146.25;86.79;52477.69;2056605;28;20966;-74
2023/01/22 01:38:47;;;;;;;5.57;4.03;;;;;;;-146.25;86.63;52518.25;2025088;28;1085737;-74
2023/01/22 01:39:51;;;;;;;8.02;3.70;;;;;;;-146.25;86.72;52514.19;2063355;28;32984;-74
2023/01/22 01:40:53;;;;;;;6.40;3.85;;;;;;;-146.25;86.49;52497.97;2063553;28;31239;-75
2023/01/22 01:41:54;;;;;;;6.50;4.32;;;;;;;-146.25;86.66;52481.75;2063584;28;33730;-74
2023/01/22 01:42:57;;;;;;;6.65;4.35;;;;;;;-146.25;86.70;52483.78;2055811;28;20051;-74
2023/01/22 01:44:12;;;;;;;6.53;4.00;;;;;;;-146.25;86.95;52489.84;2055787;28;27894;-74
2023/01/22 01:45:31;;;;;;;9.20;4.90;;;;;;;-146.25;86.89;52502.03;2055654;28;32582;-74
2023/01/22 01:46:37;;;;;;;8.73;4.78;;;;;;;-146.25;87.23;52483.78;2055774;28;39217;-74
2023/01/22 01:47:40;;;;;;;5.68;3.80;;;;;;;-146.25;86.94;52495.94;2064035;28;20051;-74
2023/01/22 01:48:46;;;;;;;8.15;4.43;;;;;;;-146.25;86.85;52536.50;2063841;28;26760;-74
2023/01/22 01:49:52;;;;;;;7.35;4.20;;;;;;;-146.25;86.92;52485.81;2063750;28;34041;-74
2023/01/22 01:51:15;;;;;;;6.45;3.70;;;;;;;-146.25;86.70;52493.91;2062344;28;33535;-74
2023/01/22 01:52:19;;;;;;;6.03;3.83;;;;;;;-146.25;86.64;52518.25;2056373;28;24342;-74
2023/01/22 01:53:21;;;;;;;6.30;4.00;;;;;;;-146.25;86.87;52502.03;2055581;28;22124;-74
2023/01/22 01:54:23;;;;;;;7.53;3.50;;;;;;;-146.25;86.83;52500.00;2055503;28;32331;-74
2023/01/22 01:55:30;;;;;;;7.75;3.90;;;;;;;-146.25;86.66;52489.84;2055432;28;32903;-74
2023/01/22 01:56:42;;;;;;;5.85;4.10;;;;;;;-146.25;86.49;52473.63;2056081;28;34419;-74
2023/01/22 01:57:44;;;;;;;7.60;4.03;;;;;;;-146.25;86.34;52495.94;2063926;28;20039;-74
2023/01/22 01:58:50;;;;;;;6.68;3.47;;;;;;;-146.25;86.32;52493.91;2063637;28;20258;-74
2023/01/22 01:59:53;;;;;;;6.68;3.97;;;;;;;-146.25;86.57;52506.06;2063121;28;24101;-75
2023/01/22 02:01:04;;;;;;;5.82;3.80;;;;;;;-146.25;86.72;52524.31;2064533;28;20916;-75
2023/01/22 02:02:06;;;;;;;6.07;3.67;;;;;;;-146.25;86.93;52475.66;2063523;28;32317;-74
2023/01/22 02:03:08;;;;;;;6.50;3.92;;;;;;;-146.25;86.75;52500.00;2062740;28;20330;-75
2023/01/22 02:04:09;;;;;;;5.93;3.42;;;;;;;-146.25;86.51;52548.66;2053934;28;36006;-74
2023/01/22 02:05:11;;;;;;;6.70;3.92;;;;;;;-146.25;86.54;52481.75;2063735;28;20047;-75
2023/01/22 02:06:17;;;;;;;4.93;3.50;;;;;;;-146.25;86.50;52514.19;2055752;28;20142;-75
2023/01/22 02:07:19;;;;;;;3.80;3.40;;;;;;;-146.25;86.42;52500.00;2048049;28;22554;-75
2023/01/22 02:08:22;;;;;;;5.55;3.60;;;;;;;-146.25;86.69;52514.19;2056134;28;20863;-75
2023/01/22 02:09:23;;;;;;;5.25;3.38;;;;;;;-146.25;86.52;52524.31;2055341;28;31224;-75
2023/01/22 02:10:25;;;;;;;4.55;3.75;;;;;;;-146.25;86.23;52506.06;2055156;28;38100;-75
2023/01/22 02:11:29;;;;;;;4.15;3.08;;;;;;;-146.25;86.46;52536.50;2055643;28;20762;-75
2023/01/22 02:12:35;;;;;;;8.40;3.90;;;;;;;-146.25;86.20;52493.91;2055447;28;20126;-75
2023/01/22 02:13:41;;;;;;;7.32;3.40;;;;;;;-146.25;86.34;52516.22;2063682;28;23742;-75
2023/01/22 02:14:44;;;;;;;5.75;3.70;;;;;;;-146.25;86.62;52493.91;2054269;28;26317;-75
2023/01/22 02:15:49;;;;;;;8.02;3.85;;;;;;;-146.25;86.65;52506.06;2055747;28;36055;-74
2023/01/22 02:17:05;;;;;;;8.20;3.88;;;;;;;-146.25;86.65;52483.78;2062353;28;33525;-75
2023/01/22 02:18:06;;;;;;;4.70;3.30;;;;;;;-146.25;86.41;52528.38;2063863;28;20039;-74
2023/01/22 02:19:08;;;;;;;4.10;3.22;;;;;;;-146.25;86.50;52534.47;2063884;28;20149;-74
2023/01/22 02:20:11;;;;;;;4.70;3.78;;;;;;;-146.25;86.21;52502.03;2055267;28;29510;-75
2023/01/22 02:21:43;;;;;;;6.55;3.78;;;;;;;-146.25;86.25;52491.88;2047771;28;20044;-74
2023/01/22 02:22:45;;;;;;;4.40;3.20;;;;;;;-146.25;86.54;52518.25;2047475;28;29227;-75
2023/01/22 02:23:49;;;;;;;5.43;3.47;;;;;;;-146.25;86.41;52471.59;2063650;28;20043;-74
2023/01/22 02:24:53;;;;;;;6.40;3.72;;;;;;;-146.25;86.62;52502.03;2063858;28;20043;-74
2023/01/22 02:25:57;;;;;;;6.35;3.50;;;;;;;-146.25;86.47;52483.78;2063811;28;20035;-74
2023/01/22 02:26:59;;;;;;;5.55;3.53;;;;;;;-146.25;86.57;52510.13;2063572;28;20800;-74
2023/01/22 02:28:01;;;;;;;5.25;3.42;;;;;;;-146.25;86.34;52502.03;2055668;28;20047;-74
2023/01/22 02:29:06;;;;;;;7.38;3.75;;;;;;;-146.25;86.38;52483.78;2055146;28;35134;-74
2023/01/22 02:30:10;;;;;;;4.78;3.55;;;;;;;-146.25;86.42;52502.03;2063334;28;20090;-74
2023/01/22 02:31:11;;;;;;;4.13;3.10;;;;;;;-146.25;86.69;52520.28;2055131;28;29207;-75
2023/01/22 02:32:13;;;;;;;5.38;3.50;;;;;;;-146.25;86.91;52512.16;2055755;28;20119;-75
2023/01/22 02:33:16;;;;;;;7.05;3.60;;;;;;;-146.25;86.99;52506.06;2055061;28;28226;-75
2023/01/22 02:34:18;;;;;;;5.15;3.55;;;;;;;-146.25;86.84;52526.34;2055648;28;20047;-74
2023/01/22 02:35:21;;;;;;;6.30;3.58;;;;;;;-146.25;86.73;52459.44;2047388;28;20123;-75
2023/01/22 02:36:23;;;;;;;5.97;3.70;;;;;;;-146.25;86.78;52516.22;2047981;28;20078;-75
2023/01/22 02:37:25;;;;;;;4.75;3.78;;;;;;;-146.25;86.41;52534.47;2063445;28;20047;-75
2023/01/22 02:38:29;;;;;;;6.72;3.70;;;;;;;-146.25;86.51;52477.69;2063495;28;20182;-75
2023/01/22 02:39:32;;;;;;;7.00;3.55;;;;;;;-146.25;86.34;52552.72;2063418;28;20844;-75
2023/01/22 02:40:47;;;;;;;6.13;3.15;;;;;;;-146.25;86.31;52461.47;2055368;28;20982;-75
2023/01/22 02:41:52;;;;;;;6.05;3.75;;;;;;;-146.25;86.57;52520.28;2057029;28;20042;-75
2023/01/22 02:42:56;;;;;;;6.18;3.45;;;;;;;-146.25;86.56;52471.59;2063474;28;20045;-75
2023/01/22 02:43:57;;;;;;;6.40;3.63;;;;;;;-146.25;86.70;52477.69;2055757;28;22947;-75
2023/01/22 02:44:59;;;;;;;3.92;3.28;;;;;;;-146.25;86.62;52495.94;2055461;28;20047;-75
2023/01/22 02:46:01;;;;;;;4.93;3.38;;;;;;;-146.25;86.45;52510.13;2063737;28;20055;-75
2023/01/22 02:47:03;;;;;;;6.00;3.95;;;;;;;-146.25;86.29;52534.47;2063896;28;20042;-75
2023/01/22 02:48:06;;;;;;;6.07;3.20;;;;;;;-146.25;86.03;52489.84;2056176;28;20074;-75
2023/01/22 02:49:09;;;;;;;4.65;3.55;;;;;;;-146.25;86.29;52526.34;2063640;28;20113;-75
2023/01/22 02:50:11;;;;;;;5.68;3.55;;;;;;;-146.25;86.38;52506.06;2063665;28;23471;-75
2023/01/22 02:51:13;;;;;;;6.15;3.40;;;;;;;-146.25;86.16;52497.97;2055438;28;20051;-75
2023/01/22 02:52:17;;;;;;;4.90;3.47;;;;;;;-146.25;86.17;52477.69;2055723;28;20058;-75
2023/01/22 02:53:20;;;;;;;8.68;3.40;;;;;;;-146.25;86.18;52497.97;2063350;28;20912;-75
2023/01/22 02:54:25;;;;;;;5.32;3.50;;;;;;;-146.25;86.17;52510.13;2063234;28;20094;-75
2023/01/22 02:55:26;;;;;;;7.32;3.67;;;;;;;-146.25;86.27;52481.75;2055045;28;29438;-75
2023/01/22 02:56:32;;;;;;;6.63;3.53;;;;;;;-146.25;86.14;52524.31;2055538;28;20043;-75
2023/01/22 02:57:37;;;;;;;4.50;3.42;;;;;;;-146.25;86.13;52516.22;2056078;28;20051;-75
2023/01/22 02:58:39;;;;;;;6.57;3.28;;;;;;;-146.25;86.36;52502.03;2063140;28;20035;-75
2023/01/22 02:59:45;;;;;;;5.10;3.67;;;;;;;-146.25;86.37;52497.97;2063372;28;20871;-76
2023/01/22 03:00:49;;;;;;;6.47;3.50;;;;;;;-146.25;86.55;52473.63;2054268;28;20114;-76
2023/01/22 03:01:51;;;;;;;7.68;3.97;;;;;;;-146.25;86.70;52487.81;2055216;28;25138;-76
2023/01/22 03:02:53;;;;;;;5.50;3.80;;;;;;;-146.25;86.65;52497.97;2063615;28;20118;-75
2023/01/22 03:03:58;;;;;;;4.35;3.67;;;;;;;-146.25;86.38;52546.63;2055401;28;20336;-76
2023/01/22 03:05:03;;;;;;;6.60;3.80;;;;;;;-146.25;86.20;52508.09;2063279;28;30533;-76
2023/01/22 03:06:05;;;;;;;5.05;3.25;;;;;;;-146.25;86.29;52485.81;2062580;28;20146;-76
2023/01/22 03:07:08;;;;;;;6.65;3.90;;;;;;;-146.25;86.18;52489.84;2047650;28;20147;-76
2023/01/22 03:08:10;;;;;;;4.43;3.55;;;;;;;-146.25;86.62;52502.03;2047535;28;20047;-76
2023/01/22 03:09:16;;;;;;;5.10;3.60;;;;;;;-146.25;86.59;52491.88;2064214;28;20128;-75
2023/01/22 03:10:20;;;;;;;7.53;3.83;;;;;;;-146.25;86.61;52491.88;2062365;28;20039;-76
2023/01/22 03:11:25;;;;;;;4.90;3.13;;;;;;;-146.25;86.52;52487.81;2055097;28;20932;-76
2023/01/22 03:12:27;;;;;;;5.10;3.97;;;;;;;-146.25;86.36;52510.13;2055167;28;20157;-76
2023/01/22 03:21:33;;;;;;;6.03;3.55;;;;;;;-146.25;85.85;52483.78;2063562;28;20059;-76
2023/01/22 03:22:35;;;;;;;5.35;3.70;;;;;;;-146.25;85.87;52518.25;2055012;28;20817;-76
2023/01/22 03:23:37;;;;;;;4.90;3.42;;;;;;;-146.25;85.84;52504.03;2047564;28;20098;-76
2023/01/22 03:24:39;;;;;;;3.97;3.42;;;;;;;-146.25;85.61;52518.25;2055206;28;20118;-76
2023/01/22 03:25:41;;;;;;;5.63;3.75;;;;;;;-146.25;85.56;52530.41;2055042;28;23038;-76
2023/01/22 03:26:43;;;;;;;5.32;3.80;;;;;;;-146.25;85.35;52504.03;2055389;28;20053;-76
2023/01/22 03:29:08;;;;;;;7.05;3.95;;;;;;;-146.25;85.82;52508.09;2063480;28;20047;-76
2023/01/22 03:30:11;;;;;;;7.43;3.85;;;;;;;-146.25;85.51;52491.88;2063173;28;21027;-76
2023/01/22 03:31:15;;;;;;;9.15;3.83;;;;;;;-146.25;85.48;52502.03;2063343;28;20125;-76
2023/01/22 03:32:17;;;;;;;5.88;4.25;;;;;;;-146.25;85.48;52495.94;2062907;28;27396;-76
2023/01/22 03:33:19;;;;;;;5.20;3.85;;;;;;;-146.25;85.38;52504.03;2055128;28;20040;-76
2023/01/22 03:34:24;;;;;;;4.30;3.70;;;;;;;-146.25;85.59;52510.13;2063699;28;20133;-77
2023/01/22 03:35:29;;;;;;;5.22;3.47;;;;;;;-146.25;85.62;52514.19;2062604;28;20046;-76
2023/01/22 03:36:46;;;;;;;7.43;4.40;;;;;;;-146.25;85.74;52497.97;2063360;28;20150;-76
2023/01/22 03:37:48;;;;;;;7.43;4.13;;;;;;;-146.25;85.68;52502.03;2063184;28;20042;-76
2023/01/22 03:38:49;;;;;;;5.65;3.83;;;;;;;-146.25;85.60;52483.78;2054916;28;20169;-77
2023/01/22 03:39:56;;;;;;;5.25;4.35;;;;;;;-146.25;85.72;52506.06;2063272;28;20050;-76
2023/01/22 03:41:15;;;;;;;6.38;4.45;;;;;;;-146.25;85.75;52514.19;2062358;28;20133;-77
2023/01/22 03:42:18;;;;;;;7.80;4.88;;;;;;;-146.25;85.56;52516.22;2055381;28;20047;-76
2023/01/22 03:43:19;;;;;;;5.70;4.47;;;;;;;-146.25;85.71;52469.56;2055064;28;29763;-76
2023/01/22 03:44:21;;;;;;;8.75;4.78;;;;;;;-146.25;85.82;52518.25;2056038;28;20046;-76
2023/01/22 03:45:23;;;;;;;4.95;3.63;;;;;;;-146.25;85.82;52502.03;2047351;28;20044;-77
2023/01/22 03:46:25;;;;;;;7.40;4.15;;;;;;;-146.25;86.01;52473.63;2055274;28;20165;-76
2023/01/22 03:47:29;;;;;;;6.88;4.45;;;;;;;-146.25;86.09;52479.72;2062743;28;20137;-76
2023/01/22 03:48:31;;;;;;;6.97;4.30;;;;;;;-146.25;86.09;52489.84;2056060;28;20047;-76
2023/01/22 03:49:35;;;;;;;5.65;4.28;;;;;;;-146.25;85.85;52500.00;2054952;28;20043;-77
2023/01/22 03:50:41;;;;;;;9.15;4.35;;;;;;;-146.25;86.05;52512.16;2054727;28;20169;-77
2023/01/22 03:51:43;;;;;;;8.02;4.45;;;;;;;-146.25;85.85;52485.81;2054263;28;37045;-77
2023/01/22 03:52:45;;;;;;;7.80;4.63;;;;;;;-146.25;86.18;52508.09;2054822;28;20125;-77
2023/01/22 03:53:47;;;;;;;7.38;4.45;;;;;;;-146.25;85.95;52506.06;2054884;28;25652;-77
2023/01/22 03:54:52;;;;;;;6.55;4.15;;;;;;;-146.25;86.04;52493.91;2063279;28;20891;-77
2023/01/22 03:55:59;;;;;;;8.18;4.40;;;;;;;-146.25;86.09;52457.41;2054751;28;20170;-77
2023/01/22 03:57:01;;;;;;;8.40;4.70;;;;;;;-146.25;86.08;52544.59;2055701;28;20127;-77
2023/01/22 03:58:06;;;;;;;5.68;4.47;;;;;;;-146.25;85.97;52514.19;2054872;28;20051;-77
2023/01/22 03:59:09;;;;;;;6.40;4.13;;;;;;;-146.25;86.00;52473.63;2055365;28;20050;-77
2023/01/22 04:00:12;;;;;;;4.82;4.05;;;;;;;-146.25;86.13;52491.88;2055073;28;20126;-77
2023/01/22 04:01:20;;;;;;;6.90;4.10;;;;;;;-146.25;86.02;52528.38;2063078;28;20047;-77
2023/01/22 04:02:23;;;;;;;7.00;4.38;;;;;;;-146.25;86.10;52506.06;2062359;28;20039;-77
2023/01/22 04:03:41;;;;;;;8.63;4.95;;;;;;;-146.25;86.11;52504.03;2063281;28;20058;-77
2023/01/22 04:04:46;;;;;;;7.78;4.10;;;;;;;-146.25;86.10;52502.03;2062619;28;20986;-77
2023/01/22 04:05:52;;;;;;;8.07;4.28;;;;;;;-146.25;86.31;52510.13;2063067;28;20031;-77
2023/01/22 04:06:53;;;;;;;7.57;4.60;;;;;;;-146.25;86.57;52516.22;2062484;28;28299;-77
2023/01/22 04:07:56;;;;;;;7.72;4.85;;;;;;;-146.25;86.56;52493.91;2055378;28;20036;-77
2023/01/22 04:09:02;;;;;;;6.55;4.65;;;;;;;-146.25;86.61;52500.00;2063026;28;20062;-77
2023/01/22 04:10:13;;;;;;;11.05;4.50;;;;;;;-146.25;86.70;52502.03;2061496;28;20043;-77
2023/01/22 04:11:16;;;;;;;7.65;4.50;;;;;;;-146.25;86.89;52520.28;2047065;28;20040;-77
2023/01/22 04:12:17;;;;;;;6.57;4.80;;;;;;;-146.25;87.17;52552.72;2047587;28;20048;-77
2023/01/22 04:13:19;;;;;;;6.07;3.88;;;;;;;-146.25;86.98;52465.53;2054924;28;20040;-77
2023/01/22 04:14:24;;;;;;;5.43;4.15;;;;;;;-146.25;87.29;52522.28;2062595;28;20073;-78
2023/01/22 04:15:30;;;;;;;6.38;4.18;;;;;;;-146.25;87.37;52477.69;2054208;28;20178;-77
2023/01/22 04:16:34;;;;;;;6.53;4.25;;;;;;;-146.25;87.43;52512.16;2055598;28;20904;-78
2023/01/22 04:17:39;;;;;;;6.60;4.32;;;;;;;-146.25;87.67;52502.03;2062687;28;20052;-77
2023/01/22 04:19:06;;;;;;;6.15;4.35;;;;;;;-146.25;87.62;52506.06;2055677;28;20133;-78
2023/01/22 04:20:10;;;;;;;5.07;4.30;;;;;;;-146.25;87.71;52500.00;2055575;28;20843;-78
2023/01/22 04:21:38;;;;;;;5.72;4.45;;;;;;;-146.25;87.65;52502.03;2039362;28;20116;-78
2023/01/22 04:22:46;;;;;;;6.07;4.55;;;;;;;-146.25;87.72;52530.41;2055316;28;20127;-77
2023/01/22 04:23:47;;;;;;;6.55;4.47;;;;;;;-146.25;87.88;52546.63;2055512;28;20046;-77
2023/01/22 04:24:49;;;;;;;7.90;5.18;;;;;;;-146.25;87.86;52518.25;2062868;28;20613;-78
2023/01/22 04:25:53;;;;;;;7.63;4.40;;;;;;;-146.25;87.71;52512.16;2062833;28;20856;-78
2023/01/22 04:26:55;;;;;;;7.28;4.95;;;;;;;-146.25;87.59;52461.47;2062831;28;20039;-78
2023/01/22 04:27:57;;;;;;;7.25;5.30;;;;;;;-146.25;87.85;52508.09;2056434;28;20273;-77
2023/01/22 04:28:59;;;;;;;5.60;4.82;;;;;;;-146.25;87.73;52497.97;2056464;28;20121;-78
2023/01/22 04:30:01;;;;;;;8.60;4.90;;;;;;;-146.25;87.87;52526.34;2056449;28;20046;-78
2023/01/22 04:31:03;;;;;;;6.10;4.60;;;;;;;-146.25;87.74;52514.19;2056476;28;20102;-77
2023/01/22 04:32:20;;;;;;;7.32;4.82;;;;;;;-146.25;87.72;52522.28;2048477;28;20052;-78
2023/01/22 04:33:33;;;;;;;7.47;5.35;;;;;;;-146.25;87.37;52516.22;2058128;28;20861;-78
2023/01/22 04:34:40;;;;;;;8.07;5.30;;;;;;;-146.25;87.08;52493.91;2055618;28;20848;-77
2023/01/22 04:35:53;;;;;;;6.60;5.30;;;;;;;-146.25;86.96;52528.38;2049447;28;20048;-78
2023/01/22 04:36:55;;;;;;;6.22;4.90;;;;;;;-146.25;86.49;52459.44;2048536;28;20068;-78
2023/01/22 04:38:02;;;;;;;7.60;6.28;;;;;;;-146.25;86.01;52487.81;2056339;28;20062;-78
2023/01/22 04:39:04;;;;;;;8.15;6.13;;;;;;;-146.25;85.50;52502.03;2064362;28;20464;-78
2023/01/22 04:40:08;;;;;;;7.00;4.97;;;;;;;-146.25;85.15;52508.09;2055970;28;20051;-78
2023/01/22 04:41:11;;;;;;;8.30;5.50;;;;;;;-146.25;84.92;52514.19;2056590;28;20210;-78
2023/01/22 04:42:14;;;;;;;6.15;5.28;;;;;;;-146.25;84.79;52530.41;2055585;28;20047;-78
2023/01/22 04:43:16;;;;;;;7.43;5.60;;;;;;;-146.25;84.86;52463.50;2056228;28;20851;-78
2023/01/22 04:44:18;;;;;;;6.45;5.57;;;;;;;-146.25;85.00;52469.56;2064806;28;20047;-78
2023/01/22 04:45:20;;;;;;;7.30;5.85;;;;;;;-146.25;84.81;52508.09;2064277;28;20046;-78
2023/01/22 04:46:22;;;;;;;8.48;5.15;;;;;;;-146.25;84.50;52510.13;2064517;28;20456;-78
2023/01/22 04:47:27;;;;;;;7.15;4.95;;;;;;;-146.25;84.24;52461.47;2064223;28;20133;-78
2023/01/22 04:48:29;;;;;;;6.45;5.07;;;;;;;-146.25;84.19;52510.13;2055571;28;20039;-78
2023/01/22 04:49:31;;;;;;;7.30;5.32;;;;;;;-146.25;84.10;52506.06;2055873;28;36756;-78
2023/01/22 04:50:33;;;;;;;6.75;4.78;;;;;;;-146.25;84.13;52504.03;2055789;28;20141;-78
2023/01/22 04:51:34;;;;;;;6.50;5.13;;;;;;;-146.25;84.42;52510.13;2064324;28;20043;-78
2023/01/22 04:52:38;;;;;;;6.53;5.55;;;;;;;-146.25;84.51;52522.28;2056137;28;20048;-78
2023/01/22 04:53:40;;;;;;;6.75;5.10;;;;;;;-146.25;84.61;52502.03;2056788;28;20057;-78
2023/01/22 04:54:42;;;;;;;6.20;5.20;;;;;;;-146.25;84.71;52497.97;2055853;28;20035;-78
2023/01/22 04:55:45;;;;;;;6.22;5.60;;;;;;;-146.25;84.74;52522.28;2056503;28;20115;-78
2023/01/22 04:56:47;;;;;;;7.85;5.32;;;;;;;-146.25;84.37;52534.47;2063596;28;20149;-78
2023/01/22 04:57:49;;;;;;;6.82;5.47;;;;;;;-146.25;84.66;52489.84;2064562;28;20180;-78
2023/01/22 04:58:52;;;;;;;7.35;5.05;;;;;;;-146.25;84.42;52542.56;2064100;28;20047;-78
2023/01/22 04:59:54;;;;;;;6.93;5.25;;;;;;;-146.25;84.40;52463.50;2056305;28;20054;-78
2023/01/22 05:00:56;;;;;;;6.63;5.32;;;;;;;-146.25;84.42;52510.13;2056091;28;20171;-78
2023/01/22 05:01:58;;;;;;;5.95;5.05;;;;;;;-146.25;84.41;52510.13;2056049;28;22904;-78
2023/01/22 05:03:04;;;;;;;7.60;5.20;;;;;;;-146.25;84.59;52479.72;2056797;28;20177;-78
2023/01/22 05:04:06;;;;;;;5.97;5.03;;;;;;;-146.25;84.63;52502.03;2063413;28;20047;-78